createdAt,value
2018-11-13T00:00:15.612Z,17.56
2018-11-13T00:02:44.032Z,17.29
2018-11-13T00:05:12.666Z,17.42
2018-11-13T00:07:41.173Z,17.49
2018-11-13T00:10:10.579Z,17.45
2018-11-13T00:12:39.016Z,17.78
2018-11-13T00:15:07.431Z,17.59
2018-11-13T00:17:35.996Z,17.34
2018-11-13T00:20:04.658Z,17.69
2018-11-13T00:22:32.949Z,17.95
2018-11-13T00:25:01.255Z,16.90
2018-11-13T00:27:29.590Z,17.06
2018-11-13T00:29:57.928Z,16.86
2018-11-13T00:32:26.306Z,17.22
2018-11-13T00:34:54.730Z,17.67
2018-11-13T00:37:23.067Z,17.54
2018-11-13T00:39:51.461Z,17.52
2018-11-13T00:42:19.712Z,17.64
2018-11-13T00:44:48.159Z,16.98
2018-11-13T00:47:16.545Z,17.22
2018-11-13T00:49:44.951Z,16.52
2018-11-13T00:52:13.283Z,16.93
2018-11-13T00:54:41.675Z,17.02
2018-11-13T00:57:10.015Z,17.45
2018-11-13T00:59:38.388Z,16.95
2018-11-13T01:02:07.068Z,16.82
2018-11-13T01:04:35.282Z,17.02
2018-11-13T01:07:03.720Z,16.75
2018-11-13T01:09:32.082Z,16.69
2018-11-13T01:12:00.477Z,16.34
2018-11-13T01:14:28.786Z,16.31
2018-11-13T01:16:57.460Z,16.33
2018-11-13T01:19:25.461Z,16.41
2018-11-13T01:21:53.895Z,16.06
2018-11-13T01:24:22.231Z,16.21
2018-11-13T01:26:50.555Z,16.26
2018-11-13T01:29:18.967Z,15.83
2018-11-13T01:31:47.388Z,16.32
2018-11-13T01:34:15.742Z,16.36
2018-11-13T01:36:44.106Z,16.53
2018-11-13T01:39:12.477Z,16.15
2018-11-13T01:41:40.829Z,15.94
2018-11-13T01:44:09.875Z,16.20
2018-11-13T01:46:38.231Z,15.84
2018-11-13T01:49:06.588Z,16.53
2018-11-13T01:51:34.924Z,16.33
2018-11-13T01:54:03.751Z,16.27
2018-11-13T01:56:32.296Z,16.57
2018-11-13T01:59:00.734Z,16.99
2018-11-13T02:01:29.169Z,16.18
2018-11-13T02:03:57.531Z,16.71
2018-11-13T02:06:25.908Z,16.47
2018-11-13T02:08:54.266Z,16.38
2018-11-13T02:11:22.704Z,16.39
2018-11-13T02:13:51.027Z,16.50
2018-11-13T02:16:19.395Z,16.77
2018-11-13T02:18:47.679Z,16.54
2018-11-13T02:21:16.066Z,16.69
2018-11-13T02:23:44.431Z,16.92
2018-11-13T02:26:12.748Z,16.59
2018-11-13T02:28:41.124Z,16.51
2018-11-13T02:31:09.468Z,16.46
2018-11-13T02:33:37.936Z,16.38
2018-11-13T02:36:06.374Z,16.44
2018-11-13T02:38:34.731Z,16.11
2018-11-13T02:41:03.100Z,15.87
2018-11-13T02:43:31.383Z,16.48
2018-11-13T02:45:59.784Z,16.05
2018-11-13T02:48:28.099Z,16.10
2018-11-13T02:50:56.448Z,16.14
2018-11-13T02:53:24.788Z,17.07
2018-11-13T02:55:53.127Z,17.08
2018-11-13T02:58:21.502Z,16.77
2018-11-13T03:00:50.638Z,16.82
2018-11-13T03:03:18.976Z,16.85
2018-11-13T03:05:47.302Z,16.73
2018-11-13T03:08:15.570Z,16.66
2018-11-13T03:10:43.906Z,16.88
2018-11-13T03:13:12.238Z,16.53
2018-11-13T03:15:40.743Z,17.40
2018-11-13T03:18:09.128Z,15.88
2018-11-13T03:20:37.565Z,16.34
2018-11-13T03:23:05.925Z,15.76
2018-11-13T03:25:34.393Z,15.97
2018-11-13T03:28:02.920Z,16.22
2018-11-13T03:30:31.352Z,16.05
2018-11-13T03:32:59.724Z,15.66
2018-11-13T03:35:28.278Z,16.27
2018-11-13T03:37:56.562Z,15.85
2018-11-13T03:40:24.953Z,15.71
2018-11-13T03:42:53.250Z,15.59
2018-11-13T03:45:21.649Z,16.10
2018-11-13T03:47:49.995Z,17.95
2018-11-13T03:50:19.427Z,17.28
2018-11-13T03:52:47.919Z,16.58
2018-11-13T03:55:16.670Z,16.52
2018-11-13T03:57:45.628Z,16.27
2018-11-13T04:00:15.267Z,15.98
2018-11-13T04:02:43.663Z,15.57
2018-11-13T04:05:14.282Z,18.81
2018-11-13T04:07:44.860Z,17.98
2018-11-13T04:10:14.212Z,16.60
2018-11-13T04:12:43.102Z,16.60
2018-11-13T04:15:14.123Z,16.80
2018-11-13T04:17:42.572Z,16.63
2018-11-13T04:20:12.762Z,16.32
2018-11-13T04:22:41.543Z,16.58
2018-11-13T04:25:09.880Z,16.01
2018-11-13T04:27:38.246Z,16.48
2018-11-13T04:30:09.048Z,15.70
2018-11-13T04:32:37.539Z,16.00
2018-11-13T04:35:07.315Z,16.20
2018-11-13T04:37:35.659Z,15.26
2018-11-13T04:40:04.862Z,16.02
2018-11-13T04:42:33.227Z,15.68
2018-11-13T04:45:01.525Z,15.51
2018-11-13T04:47:29.830Z,15.82
2018-11-13T04:49:58.203Z,15.51
2018-11-13T04:52:26.509Z,15.76
2018-11-13T04:54:54.853Z,15.59
2018-11-13T04:57:23.099Z,15.87
2018-11-13T04:59:51.479Z,15.50
2018-11-13T05:02:19.782Z,15.51
2018-11-13T05:04:48.108Z,15.42
2018-11-13T05:07:16.495Z,15.32
2018-11-13T05:09:44.862Z,15.57
2018-11-13T05:12:13.162Z,15.33
2018-11-13T05:14:41.587Z,15.47
2018-11-13T05:17:09.961Z,15.41
2018-11-13T05:19:38.342Z,15.72
2018-11-13T05:22:07.003Z,15.51
2018-11-13T05:24:35.376Z,15.33
2018-11-13T05:27:03.640Z,15.58
2018-11-13T05:29:31.971Z,15.58
2018-11-13T05:32:00.692Z,15.42
2018-11-13T05:34:28.955Z,15.16
2018-11-13T05:36:57.310Z,15.12
2018-11-13T05:39:25.626Z,16.32
2018-11-13T05:41:53.992Z,15.10
2018-11-13T05:44:22.241Z,15.49
2018-11-13T05:46:50.624Z,15.28
2018-11-13T05:49:18.943Z,14.95
2018-11-13T05:51:47.257Z,15.06
2018-11-13T05:54:15.569Z,15.13
2018-11-13T05:56:43.892Z,16.11
2018-11-13T05:59:12.235Z,15.35
2018-11-13T06:01:40.457Z,15.83
2018-11-13T06:04:09.054Z,15.66
2018-11-13T06:06:37.378Z,15.21
2018-11-13T06:09:06.975Z,15.40
2018-11-13T06:11:35.292Z,15.78
2018-11-13T06:14:03.757Z,15.91
2018-11-13T06:16:32.031Z,15.45
2018-11-13T06:19:00.363Z,15.88
2018-11-13T06:21:28.657Z,15.63
2018-11-13T06:23:57.061Z,15.97
2018-11-13T06:26:25.351Z,16.16
2018-11-13T06:28:53.720Z,15.54
2018-11-13T06:31:22.068Z,15.38
2018-11-13T06:33:50.422Z,15.58
2018-11-13T06:36:19.211Z,15.78
2018-11-13T06:38:47.551Z,16.08
2018-11-13T06:41:16.712Z,16.03
2018-11-13T06:43:45.000Z,15.92
2018-11-13T06:46:14.556Z,15.57
2018-11-13T06:48:42.880Z,16.23
2018-11-13T06:51:11.228Z,16.18
2018-11-13T06:53:50.920Z,15.71
2018-11-13T06:56:19.217Z,15.80
2018-11-13T06:58:47.508Z,15.50
2018-11-13T07:01:15.928Z,15.89
2018-11-13T07:03:44.264Z,15.46
2018-11-13T07:06:12.580Z,15.15
2018-11-13T07:08:40.919Z,14.94
2018-11-13T07:11:09.262Z,15.07
2018-11-13T07:13:37.496Z,15.74
2018-11-13T07:16:06.142Z,16.17
2018-11-13T07:18:34.498Z,16.12
2018-11-13T07:21:02.819Z,16.02
2018-11-13T07:23:31.127Z,16.10
2018-11-13T07:25:59.579Z,15.97
2018-11-13T07:28:27.896Z,15.58
2018-11-13T07:30:56.223Z,15.84
2018-11-13T07:33:24.539Z,16.28
2018-11-13T07:35:52.815Z,16.19
2018-11-13T07:38:21.129Z,16.11
2018-11-13T07:40:49.533Z,15.80
2018-11-13T07:43:17.848Z,16.12
2018-11-13T07:45:46.139Z,16.17
2018-11-13T07:48:14.501Z,16.71
2018-11-13T07:50:42.798Z,16.33
2018-11-13T07:53:11.157Z,16.26
2018-11-13T07:55:39.436Z,15.63
2018-11-13T07:58:07.768Z,16.16
2018-11-13T08:00:36.372Z,16.04
2018-11-13T08:03:35.838Z,16.29
2018-11-13T08:06:04.848Z,15.84
2018-11-13T08:08:33.171Z,16.06
2018-11-13T08:11:02.578Z,16.19
2018-11-13T08:13:31.415Z,16.25
2018-11-13T08:15:59.590Z,16.48
2018-11-13T08:18:28.052Z,16.21
2018-11-13T08:20:56.308Z,15.67
2018-11-13T08:23:25.715Z,15.38
2018-11-13T08:25:54.062Z,15.47
2018-11-13T08:28:22.576Z,15.54
2018-11-13T08:30:50.843Z,15.83
2018-11-13T08:33:19.342Z,16.78
2018-11-13T08:35:47.767Z,16.31
2018-11-13T08:38:15.983Z,16.92
2018-11-13T08:40:44.324Z,16.75
2018-11-13T08:43:12.690Z,16.57
2018-11-13T08:45:41.033Z,16.39
2018-11-13T08:48:09.404Z,16.24
2018-11-13T08:50:37.905Z,16.31
2018-11-13T08:53:06.560Z,15.85
2018-11-13T08:55:34.936Z,15.37
2018-11-13T08:58:03.268Z,15.96
2018-11-13T09:00:31.621Z,16.31
2018-11-13T09:03:00.023Z,16.08
2018-11-13T09:05:28.761Z,16.23
2018-11-13T09:07:57.191Z,15.80
2018-11-13T09:10:25.530Z,16.14
2018-11-13T09:12:53.884Z,16.57
2018-11-13T09:15:22.487Z,15.78
2018-11-13T09:17:56.504Z,15.78
2018-11-13T09:20:24.913Z,15.54
2018-11-13T09:22:53.250Z,15.63
2018-11-13T09:25:23.581Z,15.22
2018-11-13T09:27:51.933Z,15.80
2018-11-13T09:30:21.644Z,15.64
2018-11-13T09:35:19.182Z,15.24
2018-11-13T09:37:47.465Z,15.58
2018-11-13T09:40:17.499Z,15.57
2018-11-13T09:42:46.821Z,15.18
2018-11-13T09:45:15.826Z,14.92
2018-11-13T09:47:44.262Z,14.79
2018-11-13T09:50:14.211Z,14.77
2018-11-13T09:52:43.757Z,14.93
2018-11-13T09:55:13.599Z,14.86
2018-11-13T09:57:42.026Z,14.57
2018-11-13T10:00:13.272Z,14.38
2018-11-13T10:02:42.618Z,14.40
2018-11-13T10:05:11.343Z,14.52
2018-11-13T10:07:38.994Z,14.86
2018-11-13T10:10:08.455Z,14.49
2018-11-13T10:12:36.850Z,14.41
2018-11-13T10:15:07.013Z,14.41
2018-11-13T10:17:35.483Z,14.40
2018-11-13T10:20:03.739Z,14.25
2018-11-13T10:22:33.108Z,14.83
2018-11-13T10:25:01.554Z,14.89
2018-11-13T10:27:29.864Z,14.67
2018-11-13T10:29:58.356Z,14.57
2018-11-13T10:32:26.781Z,14.62
2018-11-13T10:34:55.186Z,14.58
2018-11-13T10:37:23.603Z,14.67
2018-11-13T10:39:51.998Z,14.66
2018-11-13T10:42:20.337Z,15.04
2018-11-13T10:44:48.723Z,14.92
2018-11-13T10:47:17.115Z,14.95
2018-11-13T10:49:45.497Z,15.27
2018-11-13T10:52:13.876Z,15.94
2018-11-13T10:54:42.288Z,15.46
2018-11-13T10:57:10.712Z,16.10
2018-11-13T10:59:39.351Z,16.20
2018-11-13T11:02:12.915Z,15.53
2018-11-13T11:04:41.285Z,15.59
2018-11-13T11:07:09.708Z,16.17
2018-11-13T11:09:38.408Z,15.72
2018-11-13T11:12:07.193Z,15.37
2018-11-13T11:14:36.336Z,15.45
2018-11-13T11:17:04.684Z,15.63
2018-11-13T11:19:33.258Z,15.87
2018-11-13T11:22:01.884Z,15.38
2018-11-13T11:24:30.133Z,15.49
2018-11-13T11:26:58.456Z,15.26
2018-11-13T11:29:26.879Z,15.15
2018-11-13T11:31:55.157Z,15.08
2018-11-13T11:34:23.582Z,15.18
2018-11-13T11:36:51.902Z,15.45
2018-11-13T11:39:20.340Z,15.54
2018-11-13T11:41:48.576Z,15.20
2018-11-13T11:44:16.897Z,15.31
2018-11-13T11:46:45.149Z,15.48
2018-11-13T11:49:13.538Z,15.39
2018-11-13T11:51:42.353Z,15.16
2018-11-13T11:54:10.758Z,15.33
2018-11-13T11:56:39.123Z,15.19
2018-11-13T11:59:07.422Z,15.38
2018-11-13T12:01:35.767Z,15.50
2018-11-13T12:04:04.062Z,15.23
2018-11-13T12:06:32.370Z,15.21
2018-11-13T12:09:00.662Z,15.40
2018-11-13T12:11:28.969Z,15.61
2018-11-13T12:13:57.309Z,15.40
2018-11-13T12:16:25.571Z,15.09
2018-11-13T12:18:53.944Z,15.60
2018-11-13T12:21:22.207Z,15.85
2018-11-13T12:23:50.549Z,15.94
2018-11-13T12:26:18.849Z,15.88
2018-11-13T12:28:47.203Z,16.06
2018-11-13T12:31:15.687Z,16.62
2018-11-13T12:33:44.768Z,16.27
2018-11-13T12:36:13.077Z,16.20
2018-11-13T12:38:41.391Z,16.21
2018-11-13T12:41:09.701Z,15.85
2018-11-13T12:43:38.014Z,15.93
2018-11-13T12:46:06.355Z,15.61
2018-11-13T12:48:34.681Z,16.17
2018-11-13T12:51:06.026Z,16.01
2018-11-13T12:53:38.254Z,16.77
2018-11-13T12:56:06.575Z,16.42
2018-11-13T12:58:34.933Z,18.00
2018-11-13T13:01:03.247Z,17.21
2018-11-13T13:03:31.587Z,18.61
2018-11-13T13:05:59.883Z,18.64
2018-11-13T13:08:28.254Z,19.81
2018-11-13T13:10:56.515Z,20.19
2018-11-13T13:13:24.837Z,19.54
2018-11-13T13:15:53.158Z,19.94
2018-11-13T13:18:21.482Z,19.17
2018-11-13T13:20:50.063Z,18.34
2018-11-13T13:23:18.410Z,17.40
2018-11-13T13:25:46.841Z,19.44
2018-11-13T13:28:15.124Z,18.95
2018-11-13T13:30:43.475Z,19.69
2018-11-13T13:33:11.779Z,19.44
2018-11-13T13:35:42.281Z,20.74
2018-11-13T13:38:11.158Z,19.98
2018-11-13T13:40:40.447Z,21.10
2018-11-13T13:43:09.664Z,20.61
2018-11-13T13:45:38.446Z,20.38
2018-11-13T13:48:06.797Z,19.60
2018-11-13T13:50:35.160Z,19.57
2018-11-13T13:53:03.556Z,19.76
2018-11-13T13:55:32.345Z,18.41
2018-11-13T13:58:00.815Z,17.91
2018-11-13T14:00:29.034Z,17.37
2018-11-13T14:02:57.417Z,17.07
2018-11-13T14:05:25.748Z,17.12
2018-11-13T14:07:54.172Z,17.05
2018-11-13T14:10:22.482Z,16.95
2018-11-13T14:12:50.869Z,16.91
2018-11-13T14:15:19.316Z,16.80
2018-11-13T14:17:47.619Z,16.83
2018-11-13T14:20:17.209Z,16.75
2018-11-13T14:22:45.551Z,17.17
2018-11-13T14:25:14.561Z,16.37
2018-11-13T14:27:43.079Z,16.46
2018-11-13T14:30:15.636Z,16.56
2018-11-13T14:32:44.735Z,16.33
2018-11-13T14:35:13.074Z,16.72
2018-11-13T14:37:41.356Z,16.73
2018-11-13T14:40:12.624Z,17.14
2018-11-13T14:42:40.966Z,16.91
2018-11-13T14:45:09.467Z,16.92
2018-11-13T14:47:37.826Z,16.75
2018-11-13T14:50:08.576Z,16.62
2018-11-13T14:52:37.162Z,16.75
2018-11-13T14:55:07.956Z,16.76
2018-11-13T14:57:36.216Z,16.83
2018-11-13T15:00:18.383Z,16.38
2018-11-13T15:03:01.004Z,15.90
2018-11-13T15:05:30.285Z,16.24
2018-11-13T15:08:01.953Z,16.16
2018-11-13T15:10:34.700Z,16.32
2018-11-13T15:13:03.123Z,15.74
2018-11-13T15:15:31.539Z,15.88
2018-11-13T15:17:59.965Z,16.04
2018-11-13T15:20:28.358Z,15.70
2018-11-13T15:22:56.664Z,15.61
2018-11-13T15:25:25.236Z,15.46
2018-11-13T15:27:53.588Z,15.35
2018-11-13T15:30:23.812Z,15.50
2018-11-13T15:32:55.620Z,15.54
2018-11-13T15:35:23.948Z,15.55
2018-11-13T15:37:52.431Z,15.44
2018-11-13T15:40:22.810Z,15.23
2018-11-13T15:42:51.168Z,15.30
2018-11-13T15:45:20.118Z,15.35
2018-11-13T15:47:49.156Z,15.27
2018-11-13T15:50:20.930Z,15.30
2018-11-13T15:52:49.229Z,15.01
2018-11-13T15:55:18.098Z,14.95
2018-11-13T15:57:47.188Z,14.69
2018-11-13T16:00:23.542Z,15.04
2018-11-13T16:03:05.430Z,14.85
2018-11-13T16:05:35.742Z,14.81
2018-11-13T16:08:06.477Z,15.17
2018-11-13T16:10:34.901Z,14.96
2018-11-13T16:13:03.426Z,15.10
2018-11-13T16:15:32.484Z,15.22
2018-11-13T16:18:02.212Z,15.33
2018-11-13T16:20:30.667Z,15.11
2018-11-13T16:22:58.999Z,15.12
2018-11-13T16:25:27.884Z,15.30
2018-11-13T16:27:56.240Z,14.68
2018-11-13T16:30:26.845Z,15.04
2018-11-13T16:32:55.369Z,14.56
2018-11-13T16:35:24.846Z,14.45
2018-11-13T16:37:54.103Z,14.43
2018-11-13T16:40:24.579Z,14.41
2018-11-13T16:42:52.941Z,14.55
2018-11-13T16:45:22.387Z,14.54
2018-11-13T16:47:51.042Z,14.64
2018-11-13T16:50:22.171Z,14.72
2018-11-13T16:52:50.740Z,14.55
2018-11-13T16:55:24.378Z,14.58
2018-11-13T16:57:53.521Z,14.65
2018-11-13T17:00:22.251Z,14.66
2018-11-13T17:02:50.629Z,14.54
2018-11-13T17:05:20.089Z,14.97
2018-11-13T17:07:48.480Z,14.68
2018-11-13T17:10:19.964Z,14.85
2018-11-13T17:12:48.644Z,14.71
2018-11-13T17:15:19.395Z,14.24
2018-11-13T17:17:48.721Z,14.30
2018-11-13T17:20:17.311Z,14.64
2018-11-13T17:22:46.244Z,14.15
2018-11-13T17:25:17.664Z,14.22
2018-11-13T17:27:47.184Z,13.97
2018-11-13T17:30:19.406Z,14.08
2018-11-13T17:32:46.847Z,14.29
2018-11-13T17:35:16.651Z,14.25
2018-11-13T17:37:45.668Z,14.11
2018-11-13T17:40:16.173Z,14.21
2018-11-13T17:42:45.308Z,14.48
2018-11-13T17:45:16.044Z,14.15
2018-11-13T17:47:44.893Z,14.57
2018-11-13T17:50:15.709Z,14.16
2018-11-13T17:52:45.123Z,14.35
2018-11-13T17:55:14.496Z,14.23
2018-11-13T17:57:43.891Z,14.24
2018-11-13T18:00:16.684Z,13.95
2018-11-13T18:02:46.591Z,14.09
2018-11-13T18:05:15.875Z,13.89
2018-11-13T18:07:44.602Z,13.77
2018-11-13T18:10:13.061Z,13.81
2018-11-13T18:12:41.528Z,13.84
2018-11-13T18:15:12.317Z,13.68
2018-11-13T18:17:40.871Z,13.67
2018-11-13T18:20:11.504Z,13.90
2018-11-13T18:22:40.609Z,13.74
2018-11-13T18:25:09.134Z,13.80
2018-11-13T18:27:38.488Z,13.72
2018-11-13T18:30:11.179Z,13.78
2018-11-13T18:32:39.595Z,14.01
2018-11-13T18:35:09.039Z,13.44
2018-11-13T18:37:37.526Z,13.84
2018-11-13T18:40:08.276Z,13.52
2018-11-13T18:42:36.618Z,13.54
2018-11-13T18:45:07.289Z,13.57
2018-11-13T18:47:35.978Z,13.66
2018-11-13T18:50:05.544Z,13.68
2018-11-13T18:52:34.085Z,13.60
2018-11-13T18:55:02.627Z,13.56
2018-11-13T18:57:31.273Z,13.69
2018-11-13T18:59:59.662Z,13.52
2018-11-13T19:02:28.304Z,13.48
2018-11-13T19:04:56.893Z,13.26
2018-11-13T19:07:25.550Z,13.23
2018-11-13T19:09:54.093Z,13.27
2018-11-13T19:12:22.911Z,13.14
2018-11-13T19:14:52.009Z,13.26
2018-11-13T19:17:20.525Z,13.34
2018-11-13T19:19:48.929Z,13.20
2018-11-13T19:22:17.250Z,13.22
2018-11-13T19:24:45.666Z,13.10
2018-11-13T19:27:14.282Z,13.55
2018-11-13T19:29:42.843Z,13.29
2018-11-13T19:32:11.212Z,13.23
2018-11-13T19:34:39.676Z,13.43
2018-11-13T19:37:08.234Z,13.39
2018-11-13T19:39:37.195Z,13.39
2018-11-13T19:42:05.774Z,13.42
2018-11-13T19:44:34.458Z,13.35
2018-11-13T19:47:02.654Z,13.14
2018-11-13T19:49:31.084Z,13.29
2018-11-13T19:51:59.656Z,12.95
2018-11-13T19:54:28.701Z,13.01
2018-11-13T19:56:57.145Z,12.99
2018-11-13T19:59:25.606Z,13.29
2018-11-13T20:01:54.247Z,13.03
2018-11-13T20:04:22.816Z,12.95
2018-11-13T20:06:51.218Z,13.18
2018-11-13T20:09:19.622Z,12.92
2018-11-13T20:11:48.082Z,12.90
2018-11-13T20:14:16.591Z,13.20
2018-11-13T20:16:45.020Z,13.21
2018-11-13T20:19:13.433Z,13.14
2018-11-13T20:21:41.862Z,13.26
2018-11-13T20:24:10.060Z,12.98
2018-11-13T20:26:44.631Z,13.06
2018-11-13T20:29:12.988Z,13.10
2018-11-13T20:31:41.337Z,13.32
2018-11-13T20:34:09.753Z,13.46
2018-11-13T20:36:38.126Z,13.08
2018-11-13T20:39:09.924Z,13.04
2018-11-13T20:41:38.447Z,13.41
2018-11-13T20:44:06.972Z,12.93
2018-11-13T20:46:35.608Z,13.29
2018-11-13T20:49:04.147Z,13.07
2018-11-13T20:51:32.556Z,13.13
2018-11-13T20:54:00.879Z,13.12
2018-11-13T20:56:29.252Z,13.06
2018-11-13T20:58:57.650Z,12.67
2018-11-13T21:01:26.040Z,12.81
2018-11-13T21:03:54.389Z,13.05
2018-11-13T21:06:22.768Z,12.94
2018-11-13T21:08:51.321Z,12.66
2018-11-13T21:11:19.735Z,12.86
2018-11-13T21:13:48.113Z,12.63
2018-11-13T21:16:16.606Z,12.56
2018-11-13T21:18:44.872Z,12.87
2018-11-13T21:21:13.383Z,12.86
2018-11-13T21:23:41.784Z,12.65
2018-11-13T21:26:10.084Z,13.06
2018-11-13T21:28:38.869Z,12.73
2018-11-13T21:31:07.260Z,12.72
2018-11-13T21:33:35.636Z,12.90
2018-11-13T21:36:04.065Z,12.86
2018-11-13T21:38:32.523Z,12.45
2018-11-13T21:41:00.990Z,12.59
2018-11-13T21:43:35.958Z,12.72
2018-11-13T21:46:04.219Z,12.62
2018-11-13T21:48:32.580Z,12.41
2018-11-13T21:51:00.899Z,12.48
2018-11-13T21:53:29.280Z,12.51
2018-11-13T21:55:57.701Z,12.46
2018-11-13T21:58:26.084Z,12.55
2018-11-13T22:00:54.513Z,12.54
2018-11-13T22:03:22.860Z,12.72
2018-11-13T22:05:51.281Z,12.72
2018-11-13T22:08:19.728Z,12.65
2018-11-13T22:10:48.025Z,12.42
2018-11-13T22:13:16.457Z,12.58
2018-11-13T22:15:44.924Z,12.31
2018-11-13T22:18:13.252Z,12.35
2018-11-13T22:20:43.620Z,12.40
2018-11-13T22:23:10.129Z,12.51
2018-11-13T22:25:38.550Z,12.66
2018-11-13T22:28:06.939Z,12.61
2018-11-13T22:30:35.204Z,12.60
2018-11-13T22:33:03.570Z,12.41
2018-11-13T22:35:31.919Z,12.49
2018-11-13T22:38:00.253Z,12.37
2018-11-13T22:40:29.201Z,12.37
2018-11-13T22:42:58.210Z,12.28
2018-11-13T22:45:27.765Z,12.36
2018-11-13T22:47:56.663Z,12.45
2018-11-13T22:50:26.551Z,12.23
2018-11-13T22:52:55.220Z,12.66
2018-11-13T22:55:23.585Z,12.17
2018-11-13T22:57:53.609Z,12.18
2018-11-13T23:00:26.338Z,12.22
2018-11-13T23:02:55.226Z,12.50
2018-11-13T23:05:23.767Z,12.33
2018-11-13T23:07:52.252Z,12.32
2018-11-13T23:12:55.354Z,12.49
2018-11-13T23:15:23.882Z,12.31
2018-11-13T23:17:52.207Z,12.30
2018-11-13T23:20:21.213Z,12.41
2018-11-13T23:22:49.608Z,12.52
2018-11-13T23:25:19.118Z,11.97
2018-11-13T23:27:48.429Z,12.26
2018-11-13T23:30:18.606Z,12.10
2018-11-13T23:32:47.041Z,12.43
2018-11-13T23:35:15.672Z,12.24
2018-11-13T23:37:45.242Z,11.99
2018-11-13T23:40:14.741Z,12.43
2018-11-13T23:42:43.631Z,11.83
2018-11-13T23:45:12.958Z,12.25
2018-11-13T23:47:41.588Z,11.69
2018-11-13T23:50:10.403Z,11.67
2018-11-13T23:52:38.879Z,11.82
2018-11-13T23:55:08.459Z,11.79
2018-11-13T23:57:36.847Z,12.02
